createdAt,value
2018-12-11T00:00:00.579Z,17.7
2018-12-11T00:00:50.386Z,17.7
2018-12-11T00:01:41.729Z,17.7
2018-12-11T00:02:30.466Z,17.7
2018-12-11T00:03:22.242Z,17.6
2018-12-11T00:04:11.691Z,17.7
2018-12-11T00:05:01.463Z,17.7
2018-12-11T00:05:51.254Z,17.7
2018-12-11T00:06:41.569Z,17.7
2018-12-11T00:25:11.284Z,17.6
2018-12-11T00:25:46.818Z,17.6
2018-12-11T00:26:51.180Z,17.6
2018-12-11T00:27:41.935Z,17.6
2018-12-11T00:28:22.580Z,17.6
2018-12-11T00:29:12.582Z,17.6
2018-12-11T00:30:04.186Z,17.6
2018-12-11T04:54:11.030Z,26.3
2018-12-11T04:54:59.583Z,26.3
2018-12-11T04:55:49.386Z,26.4
2018-12-11T04:56:39.388Z,26.4
2018-12-11T04:57:29.745Z,26.4
2018-12-11T04:58:19.501Z,26.3
2018-12-11T04:59:09.533Z,26.3
2018-12-11T04:59:59.910Z,26.3
2018-12-11T05:00:49.915Z,26.3
2018-12-11T05:01:39.443Z,26.3
2018-12-11T05:02:28.942Z,26.4
2018-12-11T05:03:19.851Z,26.3
2018-12-11T05:04:09.960Z,26.3
2018-12-11T05:04:59.397Z,26.4
2018-12-11T05:05:49.451Z,26.3
2018-12-11T05:06:40.103Z,26.3
2018-12-11T05:07:29.359Z,26.3
2018-12-11T05:08:20.232Z,26.3
2018-12-11T05:09:09.924Z,26.3
2018-12-11T05:10:00.257Z,26.3
2018-12-11T05:10:50.352Z,26.3
2018-12-11T05:11:40.661Z,26.3
2018-12-11T05:12:30.167Z,26.3
2018-12-11T05:13:20.245Z,26.3
2018-12-11T05:14:10.341Z,26.3
2018-12-11T05:14:59.949Z,26.3
2018-12-11T05:15:50.411Z,26.3
2018-12-11T05:16:40.801Z,26.3
2018-12-11T05:17:29.211Z,26.3
2018-12-11T05:18:22.696Z,26.3
2018-12-11T05:19:10.169Z,26.3
2018-12-11T05:19:59.996Z,26.3
2018-12-11T05:20:50.559Z,26.3
2018-12-11T05:21:41.356Z,26.3
2018-12-11T05:22:30.654Z,26.3
2018-12-11T05:23:20.727Z,26.3
2018-12-11T05:24:10.503Z,26.3
2018-12-11T05:25:00.609Z,26.3
2018-12-11T05:25:50.875Z,26.3
2018-12-11T05:26:41.026Z,26.3
2018-12-11T05:27:30.756Z,26.3
2018-12-11T05:28:20.793Z,26.3
2018-12-11T05:29:13.455Z,26.3
2018-12-11T05:30:01.227Z,26.3
2018-12-11T05:30:52.748Z,26.3
2018-12-11T05:31:40.954Z,26.3
2018-12-11T05:32:31.083Z,26.3
2018-12-11T05:33:21.388Z,26.2
2018-12-11T05:34:12.447Z,26.3
2018-12-11T05:35:00.984Z,26.3
2018-12-11T05:35:51.024Z,26.3
2018-12-11T05:36:42.213Z,26.2
2018-12-11T05:37:32.447Z,26.2
2018-12-11T05:38:22.233Z,26.2
2018-12-11T05:39:13.843Z,26.2
2018-12-11T05:40:01.510Z,26.2
2018-12-11T05:40:52.403Z,26.2
2018-12-11T05:41:42.722Z,26.2
2018-12-11T05:42:31.740Z,26.2
2018-12-11T05:43:22.310Z,26.2
2018-12-11T05:44:12.637Z,26.2
2018-12-11T05:45:03.569Z,26.2
2018-12-11T05:45:52.734Z,26.2
2018-12-11T05:46:42.367Z,26.2
2018-12-11T05:47:32.834Z,26.2
2018-12-11T05:48:23.202Z,26.1
2018-12-11T05:49:12.965Z,26.1
2018-12-11T05:50:02.514Z,26.1
2018-12-11T05:50:52.794Z,26.1
2018-12-11T05:51:43.202Z,26.1
2018-12-11T05:52:33.235Z,26.1
2018-12-11T05:53:23.541Z,26.1
2018-12-11T05:54:13.316Z,26
2018-12-11T05:55:02.389Z,26
2018-12-11T05:55:52.879Z,26
2018-12-11T05:56:43.289Z,26
2018-12-11T05:57:33.117Z,25.9
2018-12-11T05:58:23.604Z,25.9
2018-12-11T05:59:13.101Z,26
2018-12-11T06:00:04.209Z,25.9
2018-12-11T06:00:53.519Z,25.9
2018-12-11T06:01:44.086Z,25.9
2018-12-11T06:02:33.911Z,25.9
2018-12-11T06:03:24.222Z,25.9
2018-12-11T06:04:14.331Z,25.9
2018-12-11T06:05:04.073Z,25.8
2018-12-11T06:05:54.933Z,25.8
2018-12-11T06:06:44.867Z,25.7
2018-12-11T06:07:33.373Z,25.6
2018-12-11T06:08:23.795Z,25.6
2018-12-11T06:09:13.303Z,25.5
2018-12-11T06:10:03.915Z,25.4
2018-12-11T06:10:54.556Z,25.4
2018-12-11T06:11:44.091Z,25.3
2018-12-11T06:12:32.795Z,25.3
2018-12-11T06:13:23.944Z,25.3
2018-12-11T06:14:14.220Z,25.2
2018-12-11T06:15:04.255Z,25.1
2018-12-11T06:15:55.140Z,25.1
2018-12-11T06:16:43.836Z,25.1
2018-12-11T06:17:35.182Z,25.1
2018-12-11T06:18:24.680Z,25
2018-12-11T06:19:15.019Z,25
2018-12-11T06:20:05.082Z,25
2018-12-11T06:20:55.142Z,25
2018-12-11T06:21:45.712Z,24.9
2018-12-11T06:22:34.989Z,24.9
2018-12-11T06:23:25.051Z,24.9
2018-12-11T06:24:15.369Z,24.9
2018-12-11T06:25:06.687Z,24.9
2018-12-11T06:25:55.724Z,24.9
2018-12-11T06:26:46.094Z,24.8
2018-12-11T06:27:35.860Z,24.8
2018-12-11T06:28:25.991Z,24.8
2018-12-11T06:29:15.176Z,24.8
2018-12-11T06:30:05.586Z,24.8
2018-12-11T06:30:55.261Z,24.8
2018-12-11T06:31:46.343Z,24.8
2018-12-11T06:32:36.215Z,24.8
2018-12-11T06:33:26.019Z,24.7
2018-12-11T06:34:16.323Z,24.7
2018-12-11T06:35:05.628Z,24.8
2018-12-11T06:35:56.123Z,24.7
2018-12-11T06:36:46.183Z,24.7
2018-12-11T06:37:36.543Z,24.7
2018-12-11T06:38:25.813Z,24.7
2018-12-11T06:39:16.086Z,24.7
2018-12-11T06:40:06.495Z,24.6
2018-12-11T06:40:56.513Z,24.6
2018-12-11T06:41:46.833Z,24.6
2018-12-11T06:42:36.872Z,24.6
2018-12-11T06:43:26.109Z,24.6
2018-12-11T06:44:16.505Z,24.6
2018-12-11T06:45:06.275Z,24.6
2018-12-11T06:45:56.837Z,24.6
2018-12-11T06:46:46.628Z,24.6
2018-12-11T06:47:37.467Z,24.6
2018-12-11T06:48:27.009Z,24.6
2018-12-11T06:49:16.480Z,24.6
2018-12-11T06:50:06.559Z,24.6
2018-12-11T06:50:56.327Z,24.6
2018-12-11T06:51:47.507Z,24.6
2018-12-11T06:52:37.529Z,24.6
2018-12-11T06:53:27.064Z,24.6
2018-12-11T06:54:17.439Z,24.6
2018-12-11T06:55:07.731Z,24.6
2018-12-11T06:55:56.959Z,24.6
2018-12-11T06:56:47.918Z,24.6
2018-12-11T06:57:37.154Z,24.5
2018-12-11T06:58:27.758Z,24.5
2018-12-11T06:59:17.524Z,24.5
2018-12-11T07:00:08.137Z,24.5
2018-12-11T07:00:58.178Z,24.5
2018-12-11T07:01:47.964Z,24.5
2018-12-11T07:02:38.309Z,24.5
2018-12-11T07:03:27.846Z,24.5
2018-12-11T07:04:18.634Z,24.5
2018-12-11T07:05:08.156Z,24.5
2018-12-11T07:05:58.605Z,24.5
2018-12-11T07:06:48.892Z,24.5
2018-12-11T07:07:38.063Z,24.5
2018-12-11T07:08:28.113Z,24.4
2018-12-11T07:09:18.149Z,24.5
2018-12-11T07:10:08.835Z,24.4
2018-12-11T07:10:58.833Z,24.4
2018-12-11T07:11:48.468Z,24.4
2018-12-11T07:12:38.680Z,24.4
2018-12-11T07:13:29.293Z,24.4
2018-12-11T07:14:18.764Z,24.4
2018-12-11T07:15:07.717Z,24.4
2018-12-11T07:15:58.325Z,24.4
2018-12-11T07:16:48.887Z,24.4
2018-12-11T07:17:38.713Z,24.4
2018-12-11T07:18:32.209Z,24.4
2018-12-11T07:19:18.557Z,24.4
2018-12-11T07:20:08.627Z,24.4
2018-12-11T07:20:58.977Z,26.7
2018-12-11T07:21:48.997Z,31.6
2018-12-11T07:22:39.327Z,30.9
2018-12-11T07:23:28.834Z,33.5
2018-12-11T07:24:19.467Z,36.2
2018-12-11T07:25:09.249Z,37.5
2018-12-11T07:25:59.354Z,37.7
2018-12-11T07:26:49.369Z,37.4
2018-12-11T07:27:39.429Z,37.2
2018-12-11T07:28:29.429Z,36.9
2018-12-11T07:29:20.063Z,36.6
2018-12-11T07:30:09.596Z,36.4
2018-12-11T07:30:59.918Z,36.1
2018-12-11T07:31:49.973Z,35.8
2018-12-11T07:32:40.044Z,35.6
2018-12-11T07:33:29.772Z,35.3
2018-12-11T07:34:18.840Z,35
2018-12-11T07:35:10.242Z,34.8
2018-12-11T07:36:00.054Z,34.6
2018-12-11T07:36:50.030Z,34.3
2018-12-11T07:37:40.089Z,34.1
2018-12-11T07:38:29.946Z,33.8
2018-12-11T07:39:20.466Z,33.6
2018-12-11T07:40:10.269Z,33.4
2018-12-11T07:40:59.842Z,33.2
2018-12-11T07:41:50.392Z,33
2018-12-11T07:42:40.712Z,32.8
2018-12-11T07:43:31.067Z,33.4
2018-12-11T07:44:20.722Z,35.3
2018-12-11T07:45:10.892Z,34.8
2018-12-11T07:46:01.272Z,37.1
2018-12-11T07:46:50.437Z,39.2
2018-12-11T07:47:41.067Z,40
2018-12-11T07:48:31.129Z,39.9
2018-12-11T07:49:20.869Z,39.4
2018-12-11T07:50:10.664Z,39.1
2018-12-11T07:51:00.166Z,39
2018-12-11T07:51:51.351Z,39.2
2018-12-11T07:52:41.391Z,39.5
2018-12-11T07:53:31.777Z,39.9
2018-12-11T07:54:21.286Z,40.1
2018-12-11T07:55:11.389Z,40.3
2018-12-11T07:56:04.732Z,40.4
2018-12-11T07:56:51.131Z,40.4
2018-12-11T07:57:41.196Z,40.4
2018-12-11T07:58:31.500Z,40.6
2018-12-11T07:59:22.113Z,40.6
2018-12-11T08:00:11.718Z,40.8
2018-12-11T08:01:01.981Z,40.9
2018-12-11T08:01:51.751Z,41
2018-12-11T08:02:42.081Z,41.1
2018-12-11T08:03:31.884Z,41.2
2018-12-11T08:04:21.716Z,41.3
2018-12-11T08:05:11.556Z,41.3
2018-12-11T08:06:01.766Z,41.4
2018-12-11T08:06:52.406Z,41.5
2018-12-11T08:07:41.900Z,41.6
2018-12-11T08:08:32.818Z,41.6
2018-12-11T08:09:22.068Z,41.6
2018-12-11T08:10:12.895Z,41.7
2018-12-11T08:11:02.653Z,41.7
2018-12-11T08:11:52.729Z,41.8
2018-12-11T08:12:41.957Z,41.8
2018-12-11T08:13:32.615Z,41.7
2018-12-11T08:14:23.182Z,41.6
2018-12-11T08:15:14.770Z,41.7
2018-12-11T08:16:03.012Z,41.8
2018-12-11T08:16:53.064Z,41.9
2018-12-11T08:17:43.124Z,42.1
2018-12-11T08:18:32.950Z,42.2
2018-12-11T08:19:23.500Z,42.3
2018-12-11T08:20:13.310Z,42.4
2018-12-11T08:21:03.439Z,42.4
2018-12-11T08:21:53.702Z,42.5
2018-12-11T08:22:43.209Z,42.6
2018-12-11T08:23:33.539Z,42.7
2018-12-11T08:24:23.278Z,42.8
2018-12-11T08:25:13.702Z,42.8
2018-12-11T08:26:03.706Z,42.9
2018-12-11T08:26:53.783Z,43
2018-12-11T08:27:43.806Z,43.1
2018-12-11T08:28:33.038Z,43.1
2018-12-11T08:29:23.646Z,43.3
2018-12-11T08:30:13.959Z,43.3
2018-12-11T08:31:03.771Z,43.4
2018-12-11T08:31:53.544Z,43.4
2018-12-11T08:32:44.441Z,43.5
2018-12-11T08:33:34.556Z,43.6
2018-12-11T08:34:23.813Z,43.6
2018-12-11T08:35:14.871Z,43.7
2018-12-11T08:36:04.913Z,43.8
2018-12-11T08:36:54.501Z,43.9
2018-12-11T08:37:43.111Z,43.9
2018-12-11T08:38:34.633Z,43.9
2018-12-11T08:39:24.126Z,43.8
2018-12-11T08:40:14.673Z,43.8
2018-12-11T08:41:05.315Z,43.9
2018-12-11T08:41:54.778Z,44
2018-12-11T08:42:44.861Z,44.1
2018-12-11T08:43:34.973Z,44.2
2018-12-11T08:44:24.691Z,44.3
2018-12-11T08:45:15.023Z,44.3
2018-12-11T08:46:05.093Z,44.4
2018-12-11T08:46:54.878Z,44.5
2018-12-11T08:47:45.198Z,44.6
2018-12-11T08:48:35.543Z,44.6
2018-12-11T08:49:25.043Z,44.6
2018-12-11T08:50:14.900Z,44.4
2018-12-11T08:51:05.160Z,44.2
2018-12-11T08:51:55.906Z,44.1
2018-12-11T08:52:44.783Z,44.1
2018-12-11T09:08:34.893Z,45.7
2018-12-11T09:09:39.832Z,45.8
2018-12-11T09:10:16.583Z,45.9
2018-12-11T09:11:04.925Z,45.9
2018-12-11T09:11:55.132Z,46.1
2018-12-11T09:13:50.028Z,46.3
2018-12-11T09:14:25.171Z,46.3
2018-12-11T09:15:14.972Z,46.4
2018-12-11T09:16:05.044Z,46.5
2018-12-11T09:16:54.649Z,46.6
2018-12-11T09:18:00.078Z,46.5
2018-12-11T09:18:35.946Z,46.4
2018-12-11T09:19:24.782Z,46.4
2018-12-11T09:20:29.977Z,46.5
2018-12-11T09:21:05.566Z,46.6
2018-12-11T09:21:55.659Z,46.5
2018-12-11T09:22:59.690Z,46.4
2018-12-11T09:23:49.803Z,46.3
2018-12-11T09:24:25.449Z,46.3
2018-12-11T09:25:29.839Z,46.2
2018-12-11T09:26:20.197Z,45.8
2018-12-11T09:26:55.607Z,45.6
2018-12-11T09:27:45.509Z,45.4
2018-12-11T09:28:50.412Z,45.3
2018-12-11T14:07:27.708Z,37.9
2018-12-11T14:08:17.409Z,37.8
2018-12-11T14:09:07.007Z,37.5
2018-12-11T14:09:57.494Z,37.4
2018-12-11T14:10:47.232Z,37.2
2018-12-11T14:11:36.744Z,37
2018-12-11T14:12:27.323Z,36.9
2018-12-11T14:13:17.408Z,36.7
2018-12-11T14:14:07.459Z,36.6
2018-12-11T14:14:57.471Z,36.4
2018-12-11T14:15:47.296Z,36.3
2018-12-11T14:16:37.361Z,36.1
2018-12-11T14:17:28.056Z,36
2018-12-11T14:18:17.832Z,35.9
2018-12-11T14:19:08.066Z,35.8
2018-12-11T14:19:57.319Z,35.6
2018-12-11T14:20:47.913Z,35.5
2018-12-11T14:21:37.713Z,35.4
2018-12-11T14:22:28.299Z,35.3
2018-12-11T14:23:18.099Z,35.1
2018-12-11T14:24:08.151Z,35.1
2018-12-11T14:24:58.266Z,34.9
2018-12-11T14:25:47.521Z,34.9
2018-12-11T14:26:38.105Z,34.8
2018-12-11T14:27:26.320Z,34.7
2018-12-11T14:28:17.766Z,34.5
2018-12-11T14:29:07.951Z,34.4
2018-12-11T14:29:57.656Z,34.4
2018-12-11T14:30:47.210Z,34.3
2018-12-11T14:31:37.363Z,34.2
2018-12-11T14:32:27.973Z,34.1
2018-12-11T14:33:18.300Z,34.1
2018-12-11T14:34:08.487Z,33.9
2018-12-11T14:34:57.940Z,33.9
2018-12-11T14:35:47.747Z,33.8
2018-12-11T14:36:37.995Z,33.7
2018-12-11T14:37:28.912Z,33.6
2018-12-11T14:38:18.116Z,33.6
2018-12-11T14:39:08.512Z,33.4
2018-12-11T14:39:58.762Z,33.4
2018-12-11T14:40:49.127Z,33.3
2018-12-11T14:41:38.632Z,33.3
2018-12-11T14:42:29.162Z,33.2
2018-12-11T14:43:19.084Z,33.1
2018-12-11T14:44:08.857Z,33.1
2018-12-11T14:44:59.337Z,33
2018-12-11T14:45:49.071Z,32.9
2018-12-11T14:46:38.987Z,32.9
2018-12-11T14:47:29.304Z,32.8
2018-12-11T14:48:20.372Z,32.8
2018-12-11T14:49:09.349Z,32.7
2018-12-11T14:49:59.689Z,32.6
2018-12-11T14:50:50.086Z,32.6
2018-12-11T14:51:39.569Z,32.5
2018-12-11T14:52:29.873Z,32.4
2018-12-11T14:53:19.497Z,32.4
2018-12-11T14:54:10.609Z,32.3
2018-12-11T14:55:00.301Z,32.3
2018-12-11T14:55:50.083Z,32.3
2018-12-11T14:56:39.317Z,32.2
2018-12-11T14:57:36.984Z,32.1
2018-12-11T14:58:20.233Z,32.1
2018-12-11T14:59:09.518Z,32
2018-12-11T15:00:00.946Z,32
2018-12-11T15:00:49.963Z,31.9
2018-12-11T15:01:41.071Z,31.9
2018-12-11T15:02:32.498Z,31.8
2018-12-11T15:03:20.613Z,31.8
2018-12-11T15:04:10.390Z,31.8
2018-12-11T15:04:59.919Z,31.8
2018-12-11T15:05:51.068Z,31.7
2018-12-11T15:06:41.396Z,31.6
2018-12-11T15:07:30.348Z,31.6
2018-12-11T15:08:20.930Z,31.6
2018-12-11T15:09:11.298Z,31.5
2018-12-11T15:10:01.123Z,31.4
2018-12-11T15:10:51.422Z,31.4
2018-12-11T15:11:41.483Z,31.4
2018-12-11T15:12:31.610Z,31.3
2018-12-11T15:13:21.642Z,31.3
2018-12-11T15:14:11.333Z,31.3
2018-12-11T15:15:00.870Z,31.2
2018-12-11T15:15:51.478Z,31.2
2018-12-11T15:16:42.065Z,31.1
2018-12-11T15:17:31.332Z,31.1
2018-12-11T15:18:21.952Z,31.1
2018-12-11T15:19:11.996Z,31
2018-12-11T15:20:02.082Z,30.9
2018-12-11T15:20:51.565Z,30.9
2018-12-11T15:21:42.487Z,30.9
2018-12-11T15:22:32.492Z,30.9
2018-12-11T15:23:22.110Z,30.8
2018-12-11T15:24:12.675Z,30.8
2018-12-11T15:25:02.457Z,30.7
2018-12-11T15:25:51.904Z,30.7
2018-12-11T15:26:42.524Z,30.6
2018-12-11T15:27:31.751Z,30.6
2018-12-11T15:28:22.350Z,30.6
2018-12-11T15:29:12.964Z,30.6
2018-12-11T15:30:02.267Z,30.5
2018-12-11T15:30:52.521Z,30.5
2018-12-11T15:31:42.958Z,30.4
2018-12-11T15:32:33.265Z,30.4
2018-12-11T15:33:23.310Z,30.4
2018-12-11T15:34:12.010Z,30.3
2018-12-11T15:35:02.696Z,30.3
2018-12-11T15:35:52.455Z,30.3
2018-12-11T15:36:42.736Z,30.3
2018-12-11T15:37:32.242Z,30.2
2018-12-11T15:38:22.820Z,30.1
2018-12-11T15:39:12.940Z,30.1
2018-12-11T15:40:03.014Z,30.1
2018-12-11T15:40:52.756Z,30.1
2018-12-11T15:41:43.622Z,30
2018-12-11T15:42:33.417Z,30
2018-12-11T15:43:22.682Z,29.9
2018-12-11T15:44:13.457Z,29.9
2018-12-11T15:45:04.122Z,29.9
2018-12-11T15:45:53.290Z,29.9
2018-12-11T15:46:43.927Z,29.8
2018-12-11T15:47:34.299Z,29.8
2018-12-11T15:48:24.299Z,29.8
2018-12-11T15:49:14.936Z,29.7
2018-12-11T15:50:04.284Z,29.7
2018-12-11T15:50:53.916Z,29.7
2018-12-11T15:51:43.974Z,29.6
2018-12-11T15:52:34.349Z,29.6
2018-12-11T15:53:24.386Z,29.6
2018-12-11T15:54:14.700Z,29.5
2018-12-11T15:55:04.476Z,29.5
2018-12-11T15:55:54.261Z,29.4
2018-12-11T15:56:44.046Z,29.5
2018-12-11T15:57:34.414Z,29.4
2018-12-11T15:58:30.284Z,29.4
2018-12-11T15:59:14.844Z,29.4
2018-12-11T16:00:04.291Z,29.3
2018-12-11T16:00:55.267Z,29.3
2018-12-11T16:01:44.471Z,29.3
2018-12-11T16:02:35.063Z,29.3
2018-12-11T16:03:25.073Z,29.3
2018-12-11T16:04:15.138Z,29.3
2018-12-11T16:05:04.393Z,29.2
2018-12-11T16:05:54.982Z,29.2
2018-12-11T16:06:45.301Z,29.1
2018-12-11T16:07:35.345Z,29.1
2018-12-11T16:08:25.423Z,29.1
2018-12-11T16:09:15.458Z,29.1
2018-12-11T16:10:05.051Z,29
2018-12-11T16:10:55.307Z,29
2018-12-11T16:11:45.080Z,29
2018-12-11T16:12:35.410Z,28.9
2018-12-11T16:13:26.110Z,28.9
2018-12-11T16:14:16.407Z,28.9
2018-12-11T16:15:06.280Z,28.9
2018-12-11T16:15:55.927Z,28.9
2018-12-11T16:16:45.987Z,28.9
2018-12-11T16:17:36.067Z,28.8
2018-12-11T16:18:25.847Z,28.8
2018-12-11T16:19:15.397Z,28.8
2018-12-11T16:20:06.298Z,28.8
2018-12-11T16:20:56.635Z,28.8
2018-12-11T16:21:46.065Z,28.7
2018-12-11T16:22:35.578Z,28.7
2018-12-11T16:23:26.202Z,28.7
2018-12-11T16:24:16.532Z,28.6
2018-12-11T16:25:06.037Z,28.6
2018-12-11T16:25:56.427Z,28.6
2018-12-11T16:26:46.974Z,28.6
2018-12-11T16:27:36.457Z,28.6
2018-12-11T16:28:26.819Z,28.6
2018-12-11T16:29:17.160Z,28.5
2018-12-11T16:30:05.844Z,28.5
2018-12-11T16:30:57.100Z,28.5
2018-12-11T16:31:47.072Z,28.5
2018-12-11T16:32:37.392Z,28.4
2018-12-11T16:33:27.445Z,28.4
2018-12-11T16:34:16.485Z,28.4
2018-12-11T16:35:07.129Z,28.4
2018-12-11T16:35:56.312Z,28.4
2018-12-11T16:36:47.404Z,28.4
2018-12-11T16:37:36.984Z,28.4
2018-12-11T16:38:27.507Z,28.3
2018-12-11T16:39:17.425Z,28.3
2018-12-11T16:40:09.672Z,28.3
2018-12-11T16:40:57.031Z,28.3
2018-12-11T16:41:47.791Z,28.3
2018-12-11T16:42:37.799Z,28.3
2018-12-11T16:43:27.586Z,28.2
2018-12-11T16:44:17.376Z,28.3
2018-12-11T16:45:08.251Z,28.2
2018-12-11T16:45:58.624Z,28.2
2018-12-11T16:46:48.086Z,28.2
2018-12-11T16:47:38.161Z,28.1
2018-12-11T16:48:27.924Z,28.1
2018-12-11T16:49:18.292Z,28.1
2018-12-11T16:50:08.333Z,28.1
2018-12-11T16:50:57.616Z,28.1
2018-12-11T16:51:48.783Z,28.1
2018-12-11T16:52:38.781Z,28.1
2018-12-11T16:53:28.569Z,28.1
2018-12-11T16:54:18.888Z,28.1
2018-12-11T16:55:08.681Z,28
2018-12-11T16:55:58.426Z,28
2018-12-11T16:56:48.760Z,28
2018-12-11T16:57:38.601Z,27.9
2018-12-11T16:58:29.190Z,27.9
2018-12-11T16:59:18.428Z,27.9
2018-12-11T17:00:08.751Z,27.9
2018-12-11T17:00:59.367Z,27.9
2018-12-11T17:01:49.445Z,27.9
2018-12-11T17:02:39.218Z,27.9
2018-12-11T17:03:29.250Z,27.9
2018-12-11T17:04:19.310Z,27.9
2018-12-11T17:05:09.370Z,27.9
2018-12-11T17:05:59.478Z,27.9
2018-12-11T17:06:49.542Z,27.9
2018-12-11T17:11:00.450Z,27.8
2018-12-11T17:11:49.840Z,27.8
2018-12-11T17:12:39.913Z,27.8
2018-12-11T17:13:29.730Z,27.8
2018-12-11T17:14:19.755Z,27.7
2018-12-11T17:15:09.530Z,27.7
2018-12-11T17:16:00.125Z,27.7
2018-12-11T17:16:50.253Z,27.7
2018-12-11T17:17:39.695Z,27.7
2018-12-11T17:18:30.303Z,27.6
2018-12-11T17:19:20.370Z,27.7
2018-12-11T17:20:10.430Z,27.6
2018-12-11T17:20:59.937Z,27.6
2018-12-11T17:21:53.238Z,27.6
2018-12-11T17:22:40.615Z,27.6
2018-12-11T17:23:30.385Z,27.6
2018-12-11T17:24:19.861Z,27.6
2018-12-11T17:25:10.823Z,27.6
2018-12-11T17:26:00.525Z,27.6
2018-12-11T17:26:52.381Z,27.6
2018-12-11T17:27:41.267Z,27.6
2018-12-11T17:28:31.292Z,27.6
2018-12-11T17:29:27.775Z,27.6
2018-12-11T17:30:10.848Z,27.5
2018-12-11T17:31:01.187Z,27.6
2018-12-11T17:31:51.247Z,27.5
2018-12-11T17:32:41.618Z,27.5
2018-12-11T17:33:31.119Z,27.5
2018-12-11T17:34:20.855Z,27.5
2018-12-11T17:35:11.537Z,27.5
2018-12-11T17:36:01.255Z,27.5
2018-12-11T17:36:51.322Z,27.4
2018-12-11T17:37:41.100Z,27.4
2018-12-11T17:38:31.700Z,27.4
2018-12-11T17:39:21.196Z,27.4
2018-12-11T17:40:11.531Z,27.4
2018-12-11T17:41:01.592Z,27.4
2018-12-11T17:41:52.252Z,27.4
2018-12-11T17:42:42.217Z,27.4
2018-12-11T17:43:32.112Z,27.4
2018-12-11T17:44:22.367Z,27.4
2018-12-11T17:45:12.439Z,27.4
2018-12-11T17:46:02.497Z,27.4
2018-12-11T17:46:52.311Z,27.4
2018-12-11T17:47:42.599Z,27.4
2018-12-11T17:48:32.708Z,27.3
2018-12-11T17:49:24.153Z,27.3
2018-12-11T17:50:12.235Z,27.3
2018-12-11T17:51:02.624Z,27.3
2018-12-11T17:51:52.111Z,27.3
2018-12-11T17:52:44.052Z,27.3
2018-12-11T17:53:31.956Z,27.3
2018-12-11T17:54:22.846Z,27.3
2018-12-11T17:55:12.359Z,27.3
2018-12-11T17:56:01.856Z,27.3
2018-12-11T17:56:52.478Z,27.3
2018-12-11T17:57:42.566Z,27.3
2018-12-11T17:58:32.914Z,27.3
2018-12-11T17:59:22.443Z,27.3
2018-12-11T18:00:12.748Z,27.3
2018-12-11T18:01:02.476Z,27.2
2018-12-11T18:01:52.280Z,27.2
2018-12-11T18:02:42.320Z,27.2
2018-12-11T18:03:33.758Z,27.2
2018-12-11T18:04:22.733Z,27.2
2018-12-11T18:05:13.529Z,27.1
2018-12-11T18:23:51.472Z,26.2
2018-12-11T18:24:41.212Z,25.9
2018-12-11T18:25:31.584Z,25.8
2018-12-11T18:26:21.354Z,25.6
2018-12-11T18:27:11.377Z,25.4
2018-12-11T18:28:01.159Z,25.3
2018-12-11T18:28:51.260Z,25.1
2018-12-11T18:29:41.838Z,24.9
2018-12-11T18:30:31.589Z,24.7
2018-12-11T18:31:21.429Z,24.6
2018-12-11T18:32:11.431Z,24.4
2018-12-11T18:33:02.044Z,24.1
2018-12-11T18:33:52.146Z,23.9
2018-12-11T18:34:41.864Z,23.8
2018-12-11T18:35:32.303Z,23.6
2018-12-11T18:36:22.244Z,23.5
2018-12-11T18:37:12.049Z,23.3
2018-12-11T18:38:02.384Z,23.2
2018-12-11T18:38:51.907Z,23.1
2018-12-11T18:39:42.762Z,22.9
2018-12-11T18:40:32.581Z,22.8
2018-12-11T18:41:22.734Z,22.8
2018-12-11T18:42:11.586Z,22.6
2018-12-11T18:43:02.256Z,22.5
2018-12-11T18:43:52.576Z,22.4
2018-12-11T18:44:42.561Z,22.3
2018-12-11T18:45:32.903Z,22.2
2018-12-11T18:46:22.942Z,22.1
2018-12-11T18:47:12.473Z,22.1
2018-12-11T18:48:02.538Z,21.9
2018-12-11T18:48:52.914Z,21.9
2018-12-11T18:49:43.218Z,21.8
2018-12-11T18:50:33.498Z,21.7
2018-12-11T18:51:23.055Z,21.6
2018-12-11T18:52:13.438Z,21.6
2018-12-11T18:53:02.606Z,21.6
2018-12-11T18:53:53.210Z,21.4
2018-12-11T18:54:43.564Z,21.4
2018-12-11T18:55:33.062Z,21.3
2018-12-11T18:56:23.105Z,21.3
2018-12-11T18:57:13.438Z,21.2
2018-12-11T18:58:03.282Z,21.2
2018-12-11T18:59:43.616Z,21.1
2018-12-11T19:00:33.460Z,21
2018-12-11T19:01:23.750Z,21
2018-12-11T19:02:13.785Z,20.9
2018-12-11T19:03:04.183Z,20.9
2018-12-11T19:03:55.239Z,20.8
2018-12-11T19:04:43.410Z,20.8
2018-12-11T19:05:34.240Z,20.8
2018-12-11T19:06:24.087Z,20.8
2018-12-11T19:07:14.132Z,20.7
2018-12-11T19:08:03.918Z,20.7
2018-12-11T19:08:54.252Z,20.6
2018-12-11T19:09:44.597Z,20.6
2018-12-11T19:10:33.875Z,20.5
2018-12-11T19:11:24.454Z,20.5
2018-12-11T19:12:14.302Z,20.5
2018-12-11T19:13:03.500Z,20.4
2018-12-11T19:13:54.399Z,20.4
2018-12-11T19:14:44.701Z,20.4
2018-12-11T19:15:34.151Z,20.3
2018-12-11T19:16:24.524Z,20.3
2018-12-11T19:17:15.124Z,20.3
2018-12-11T19:18:04.637Z,20.2
2018-12-11T19:18:55.271Z,20.2
2018-12-11T19:19:44.729Z,20.1
2018-12-11T19:20:35.361Z,20.1
2018-12-11T19:21:24.844Z,20.1
2018-12-11T19:22:15.471Z,20.1
2018-12-11T19:23:04.963Z,20
2018-12-11T19:23:55.016Z,20
2018-12-11T19:24:45.396Z,19.9
2018-12-11T19:25:35.411Z,19.9
2018-12-11T19:26:26.710Z,19.9
2018-12-11T19:27:15.230Z,19.9
2018-12-11T19:28:05.831Z,19.8
2018-12-11T19:28:55.620Z,19.8
2018-12-11T19:29:45.725Z,19.8
2018-12-11T19:30:36.077Z,19.8
2018-12-11T19:31:25.945Z,19.8
2018-12-11T19:32:15.900Z,19.8
2018-12-11T19:33:05.948Z,19.7
2018-12-11T19:33:55.981Z,19.7
2018-12-11T19:34:45.760Z,19.6
2018-12-11T19:35:38.235Z,19.6
2018-12-11T19:36:25.902Z,19.6
2018-12-11T19:37:15.930Z,19.6
2018-12-11T19:38:06.022Z,19.6
2018-12-11T19:38:56.324Z,19.6
2018-12-11T19:39:46.097Z,19.6
2018-12-11T19:40:45.995Z,19.5
2018-12-11T19:41:26.777Z,19.5
2018-12-11T19:42:16.671Z,19.5
2018-12-11T19:43:12.595Z,19.5
2018-12-11T19:43:56.667Z,19.4
2018-12-11T19:44:46.712Z,19.4
2018-12-11T19:45:37.126Z,19.4
2018-12-11T19:46:27.154Z,19.4
2018-12-11T19:47:16.899Z,19.4
2018-12-11T19:48:06.414Z,19.4
2018-12-11T19:48:57.079Z,19.4
2018-12-11T19:49:47.194Z,19.3
2018-12-11T19:50:37.133Z,19.3
2018-12-11T19:51:27.423Z,19.3
2018-12-11T19:52:17.003Z,19.3
2018-12-11T19:53:07.025Z,19.3
2018-12-11T19:53:57.338Z,19.3
2018-12-11T19:54:47.154Z,19.3
2018-12-11T19:55:37.840Z,19.3
2018-12-11T19:56:28.085Z,19.3
2018-12-11T19:57:17.598Z,19.2
2018-12-11T19:58:06.548Z,19.2
2018-12-11T19:58:57.135Z,19.2
2018-12-11T19:59:47.770Z,19.2
2018-12-11T20:00:38.350Z,19.2
2018-12-11T20:01:27.597Z,19.1
2018-12-11T20:02:17.655Z,19.1
2018-12-11T20:03:13.958Z,19.1
2018-12-11T20:03:58.072Z,19.1
2018-12-11T20:04:48.375Z,19.1
2018-12-11T20:05:37.887Z,19.1
2018-12-11T20:06:27.185Z,19.1
2018-12-11T20:07:18.279Z,19.1
2018-12-11T20:08:07.763Z,19.1
2018-12-11T20:08:57.569Z,19.1
2018-12-11T20:09:47.906Z,19.1
2018-12-11T20:10:38.805Z,19.1
2018-12-11T20:11:28.319Z,19
2018-12-11T20:12:18.360Z,19
2018-12-11T20:13:08.774Z,19
2018-12-11T20:13:59.029Z,19
2018-12-11T20:14:48.259Z,19
2018-12-11T20:15:39.491Z,19
2018-12-11T20:16:28.719Z,19
2018-12-11T20:17:18.973Z,19
2018-12-11T20:18:15.526Z,19
2018-12-11T20:18:59.361Z,19
2018-12-11T20:19:49.146Z,19
2018-12-11T20:20:39.258Z,19
2018-12-11T20:21:29.024Z,19
2018-12-11T20:22:18.763Z,19
2018-12-11T20:23:09.363Z,19
2018-12-11T20:24:05.913Z,19.1
2018-12-11T20:24:49.790Z,19.1
2018-12-11T20:25:39.535Z,19.1
2018-12-11T20:26:29.623Z,19.1
2018-12-11T20:27:19.101Z,19.1
2018-12-11T20:28:09.158Z,19.1
2018-12-11T20:28:59.241Z,19.2
2018-12-11T20:29:50.107Z,19.2
2018-12-11T20:30:39.895Z,19.3
2018-12-11T20:31:29.469Z,19.3
2018-12-11T20:32:19.460Z,19.3
2018-12-11T20:33:09.787Z,19.4
2018-12-11T20:33:59.632Z,19.4
2018-12-11T20:34:48.979Z,19.6
2018-12-11T20:35:39.214Z,19.6
2018-12-11T20:36:28.977Z,19.7
2018-12-11T20:37:19.838Z,19.8
2018-12-11T20:38:09.105Z,19.9
2018-12-11T20:38:59.505Z,20
2018-12-11T20:39:50.304Z,20.1
2018-12-11T20:40:40.626Z,20.3
2018-12-11T20:41:30.899Z,20.4
2018-12-11T20:42:20.391Z,20.5
2018-12-11T20:43:10.736Z,20.7
2018-12-11T20:44:00.229Z,20.8
2018-12-11T20:44:50.629Z,20.9
2018-12-11T20:45:40.931Z,21.1
2018-12-11T20:46:30.439Z,21.3
2018-12-11T20:47:21.571Z,21.4
2018-12-11T20:48:10.873Z,21.5
2018-12-11T20:49:00.593Z,21.6
2018-12-11T20:49:51.014Z,21.8
2018-12-11T20:50:41.284Z,21.9
2018-12-11T20:51:30.765Z,22.1
2018-12-11T20:52:20.624Z,22.2
2018-12-11T20:53:11.270Z,22.3
2018-12-11T20:54:01.029Z,22.5
2018-12-11T20:54:51.326Z,22.6
2018-12-11T20:55:41.888Z,22.8
2018-12-11T20:56:31.718Z,22.9
2018-12-11T20:57:21.603Z,23.1
2018-12-11T20:58:11.490Z,23.3
2018-12-11T20:59:01.921Z,23.4
2018-12-11T20:59:51.345Z,23.6
2018-12-11T21:00:41.666Z,23.7
2018-12-11T21:01:31.716Z,23.8
2018-12-11T21:02:22.333Z,24
2018-12-11T21:03:12.232Z,24.1
2018-12-11T21:04:02.201Z,24.3
2018-12-11T21:04:51.688Z,24.4